createdAt,value
2019-04-25T00:01:21.651Z,6.30
2019-04-25T00:03:53.319Z,6.37
2019-04-25T00:06:24.379Z,5.97
2019-04-25T00:08:56.750Z,6.10
2019-04-25T00:11:28.739Z,6.27
2019-04-25T00:13:58.331Z,6.20
2019-04-25T00:16:31.161Z,6.27
2019-04-25T00:19:01.872Z,5.90
2019-04-25T00:21:39.233Z,6.03
2019-04-25T00:24:17.456Z,6.57
2019-04-25T00:26:49.360Z,6.53
2019-04-25T00:29:19.014Z,6.23
2019-04-25T00:31:49.287Z,6.90
2019-04-25T00:34:19.325Z,6.37
2019-04-25T00:36:49.097Z,6.00
2019-04-25T00:39:19.704Z,5.80
2019-04-25T00:41:52.077Z,6.03
2019-04-25T00:44:22.090Z,6.20
2019-04-25T00:46:56.178Z,6.50
2019-04-25T00:49:24.924Z,6.03
2019-04-25T00:51:55.082Z,6.30
2019-04-25T00:54:24.547Z,5.87
2019-04-25T00:56:55.873Z,6.30
2019-04-25T00:59:41.867Z,7.00
2019-04-25T01:02:18.276Z,5.87
2019-04-25T01:04:49.264Z,6.23
2019-04-25T01:07:19.660Z,5.87
2019-04-25T01:09:49.918Z,6.10
2019-04-25T01:12:21.551Z,5.83
2019-04-25T01:14:52.844Z,6.20
2019-04-25T01:17:24.539Z,6.60
2019-04-25T01:19:57.746Z,6.70
2019-04-25T01:22:26.436Z,6.53
2019-04-25T01:24:57.126Z,6.27
2019-04-25T01:27:27.195Z,6.13
2019-04-25T01:29:57.996Z,6.23
2019-04-25T01:32:33.562Z,6.70
2019-04-25T01:35:11.867Z,6.40
2019-04-25T01:37:48.985Z,6.23
2019-04-25T01:40:49.509Z,6.50
2019-04-25T01:43:29.036Z,6.30
2019-04-25T01:45:59.607Z,6.20
2019-04-25T01:48:29.263Z,6.97
2019-04-25T01:50:58.892Z,6.50
2019-04-25T01:53:28.492Z,6.67
2019-04-25T01:56:04.089Z,6.80
2019-04-25T01:58:30.342Z,6.40
2019-04-25T02:01:00.365Z,6.53
2019-04-25T02:03:31.074Z,6.17
2019-04-25T02:06:01.076Z,6.40
2019-04-25T02:08:31.797Z,6.63
2019-04-25T02:11:28.796Z,6.83
2019-04-25T02:14:03.935Z,7.07
2019-04-25T02:16:37.077Z,7.17
2019-04-25T02:19:06.853Z,7.30
2019-04-25T02:21:36.716Z,7.27
2019-04-25T02:24:06.166Z,7.03
2019-04-25T02:26:35.787Z,6.90
2019-04-25T02:29:05.702Z,6.83
2019-04-25T02:31:35.579Z,6.90
2019-04-25T02:34:08.450Z,6.40
2019-04-25T02:36:37.271Z,6.97
2019-04-25T02:39:14.858Z,6.83
2019-04-25T02:41:44.858Z,6.50
2019-04-25T02:44:20.519Z,6.80
2019-04-25T02:47:26.932Z,7.13
2019-04-25T02:50:15.181Z,6.83
2019-04-25T02:52:51.026Z,6.60
2019-04-25T02:55:30.763Z,7.10
2019-04-25T02:57:54.120Z,7.00
2019-04-25T03:00:28.084Z,7.33
2019-04-25T03:03:00.784Z,7.07
2019-04-25T03:05:30.924Z,7.03
2019-04-25T03:08:01.810Z,6.90
2019-04-25T03:10:34.781Z,7.10
2019-04-25T03:13:07.973Z,7.20
2019-04-25T03:15:36.841Z,6.93
2019-04-25T03:18:11.938Z,6.67
2019-04-25T03:20:45.157Z,7.60
2019-04-25T03:23:35.181Z,7.20
2019-04-25T03:26:07.499Z,7.20
2019-04-25T03:28:39.209Z,7.77
2019-04-25T03:31:22.153Z,7.37
2019-04-25T03:33:46.395Z,7.17
2019-04-25T03:36:16.982Z,7.60
2019-04-25T03:38:47.843Z,7.37
2019-04-25T03:41:17.433Z,7.37
2019-04-25T03:43:47.264Z,9.13
2019-04-25T03:46:16.861Z,7.77
2019-04-25T03:48:46.531Z,7.30
2019-04-25T03:51:17.377Z,7.20
2019-04-25T03:53:48.142Z,7.53
2019-04-25T03:56:18.024Z,6.70
2019-04-25T03:58:47.553Z,9.47
2019-04-25T04:01:17.324Z,7.57
2019-04-25T04:03:47.093Z,7.70
2019-04-25T04:06:17.478Z,6.70
2019-04-25T04:08:47.118Z,7.57
2019-04-25T04:11:17.061Z,7.10
2019-04-25T04:13:46.593Z,7.20
2019-04-25T04:16:19.158Z,6.43
2019-04-25T04:18:50.557Z,7.10
2019-04-25T04:21:35.821Z,7.47
2019-04-25T04:24:18.675Z,7.37
2019-04-25T04:27:06.902Z,6.53
2019-04-25T04:29:37.049Z,7.00
2019-04-25T04:32:06.932Z,7.20
2019-04-25T04:34:36.654Z,7.63
2019-04-25T04:37:07.476Z,7.17
2019-04-25T04:39:37.169Z,7.10
2019-04-25T04:42:09.625Z,6.80
2019-04-25T04:44:46.683Z,7.30
2019-04-25T04:47:16.687Z,6.53
2019-04-25T04:49:47.244Z,7.07
2019-04-25T04:52:17.557Z,7.27
2019-04-25T04:54:47.893Z,7.17
2019-04-25T04:57:27.796Z,7.60
2019-04-25T04:59:51.115Z,7.27
2019-04-25T05:02:55.433Z,7.57
2019-04-25T05:05:45.465Z,7.20
2019-04-25T05:08:24.926Z,7.20
2019-04-25T05:10:57.874Z,7.00
2019-04-25T05:13:27.899Z,7.50
2019-04-25T05:16:10.098Z,7.17
2019-04-25T05:18:43.757Z,7.53
2019-04-25T05:21:15.691Z,7.03
2019-04-25T05:23:45.867Z,7.83
2019-04-25T05:26:16.327Z,7.73
2019-04-25T05:28:46.792Z,8.60
2019-04-25T05:31:28.783Z,8.17
2019-04-25T05:33:59.102Z,7.47
2019-04-25T05:36:38.101Z,7.33
2019-04-25T05:39:10.458Z,8.13
2019-04-25T05:41:46.271Z,7.73
2019-04-25T05:44:16.871Z,7.60
2019-04-25T05:46:46.841Z,7.93
2019-04-25T05:49:17.180Z,7.90
2019-04-25T05:51:47.066Z,7.40
2019-04-25T05:54:16.812Z,7.33
2019-04-25T05:56:47.070Z,7.37
2019-04-25T05:59:19.493Z,7.37
2019-04-25T06:01:50.353Z,6.87
2019-04-25T06:04:19.910Z,7.67
2019-04-25T06:06:53.346Z,7.23
2019-04-25T06:09:55.652Z,7.73
2019-04-25T06:12:43.416Z,7.30
2019-04-25T06:15:11.284Z,7.67
2019-04-25T06:18:00.075Z,9.50
2019-04-25T06:20:34.573Z,19.33
2019-04-25T06:23:14.619Z,6.90
2019-04-25T06:25:44.689Z,6.57
2019-04-25T06:28:16.399Z,7.20
2019-04-25T06:30:46.576Z,7.73
2019-04-25T06:33:17.094Z,7.23
2019-04-25T06:35:46.803Z,7.83
2019-04-25T06:38:18.791Z,7.23
2019-04-25T06:40:53.590Z,7.27
2019-04-25T06:43:26.725Z,7.20
2019-04-25T06:46:14.208Z,7.40
2019-04-25T06:48:51.107Z,7.93
2019-04-25T06:51:25.574Z,7.57
2019-04-25T06:53:54.480Z,8.07
2019-04-25T06:56:25.250Z,6.93
2019-04-25T06:58:56.286Z,7.20
2019-04-25T07:01:27.658Z,7.00
2019-04-25T07:03:59.080Z,6.43
2019-04-25T07:06:29.179Z,7.00
2019-04-25T07:09:00.120Z,7.33
2019-04-25T07:11:30.537Z,6.90
2019-04-25T07:14:04.167Z,6.97
2019-04-25T07:16:34.691Z,7.00
2019-04-25T07:19:06.086Z,6.77
2019-04-25T07:21:35.896Z,6.57
2019-04-25T07:24:05.914Z,7.50
2019-04-25T07:27:04.332Z,7.23
2019-04-25T07:29:59.023Z,7.07
2019-04-25T07:32:43.981Z,7.30
2019-04-25T07:35:13.625Z,7.53
2019-04-25T07:37:48.331Z,7.70
2019-04-25T07:40:18.916Z,7.27
2019-04-25T07:42:48.525Z,7.23
2019-04-25T07:45:19.460Z,7.97
2019-04-25T07:47:49.228Z,6.87
2019-04-25T07:50:20.170Z,7.33
2019-04-25T07:52:49.776Z,8.43
2019-04-25T07:55:19.653Z,7.27
2019-04-25T07:57:49.513Z,6.87
2019-04-25T08:00:25.344Z,7.10
2019-04-25T08:02:55.424Z,7.43
2019-04-25T08:05:27.889Z,7.00
2019-04-25T08:07:58.049Z,7.80
2019-04-25T08:10:29.981Z,7.57
2019-04-25T08:13:00.313Z,7.43
2019-04-25T08:15:38.346Z,7.67
2019-04-25T08:18:09.211Z,7.10
2019-04-25T08:20:40.334Z,7.33
2019-04-25T08:23:11.633Z,7.27
2019-04-25T08:25:44.218Z,7.37
2019-04-25T08:28:14.913Z,7.73
2019-04-25T08:30:44.709Z,6.80
2019-04-25T08:33:14.233Z,7.60
2019-04-25T08:36:03.004Z,7.50
2019-04-25T08:38:16.002Z,7.07
2019-04-25T08:40:45.930Z,7.70
2019-04-25T08:43:16.069Z,7.23
2019-04-25T08:45:47.582Z,7.80
2019-04-25T08:48:17.456Z,7.60
2019-04-25T08:51:03.700Z,7.13
2019-04-25T08:53:41.018Z,7.40
2019-04-25T08:56:22.000Z,7.20
2019-04-25T08:59:14.265Z,7.27
2019-04-25T09:01:56.810Z,7.83
2019-04-25T09:04:34.798Z,7.90
2019-04-25T09:07:05.485Z,8.27
2019-04-25T09:09:37.603Z,7.60
2019-04-25T09:12:07.348Z,7.80
2019-04-25T09:14:37.843Z,8.57
2019-04-25T09:17:08.735Z,7.47
2019-04-25T09:19:38.541Z,8.27
2019-04-25T09:22:08.320Z,8.07
2019-04-25T09:24:38.931Z,7.67
2019-04-25T09:27:08.741Z,7.70
2019-04-25T09:29:38.945Z,7.90
2019-04-25T09:32:08.622Z,8.00
2019-04-25T09:34:38.205Z,7.27
2019-04-25T09:37:08.133Z,7.90
2019-04-25T09:39:59.520Z,7.07
2019-04-25T09:42:29.472Z,7.73
2019-04-25T09:45:16.819Z,7.77
2019-04-25T09:47:47.987Z,7.60
2019-04-25T09:50:35.615Z,8.23
2019-04-25T09:53:05.249Z,7.33
2019-04-25T09:55:59.731Z,8.10
2019-04-25T09:58:50.613Z,7.40
2019-04-25T10:01:20.941Z,7.73
2019-04-25T10:03:51.155Z,8.00
2019-04-25T10:06:23.381Z,8.10
2019-04-25T10:08:54.256Z,7.60
2019-04-25T10:11:24.776Z,7.90
2019-04-25T10:14:29.851Z,7.60
2019-04-25T10:16:59.374Z,7.97
2019-04-25T10:19:29.028Z,7.70
2019-04-25T10:21:59.313Z,8.03
2019-04-25T10:24:30.271Z,8.33
2019-04-25T10:27:01.600Z,8.10
2019-04-25T10:29:41.681Z,7.80
2019-04-25T10:32:04.341Z,8.00
2019-04-25T10:34:36.011Z,8.17
2019-04-25T10:37:05.687Z,8.57
2019-04-25T10:39:35.764Z,7.70
2019-04-25T10:42:05.728Z,8.10
2019-04-25T10:44:35.298Z,8.33
2019-04-25T10:47:15.655Z,7.70
2019-04-25T10:49:47.546Z,8.53
2019-04-25T10:52:17.552Z,8.30
2019-04-25T10:54:49.536Z,8.33
2019-04-25T10:57:19.259Z,7.57
2019-04-25T11:00:00.391Z,8.23
2019-04-25T11:02:20.440Z,8.30
2019-04-25T11:04:56.016Z,7.77
2019-04-25T11:07:26.139Z,7.50
2019-04-25T11:09:58.982Z,7.90
2019-04-25T11:12:31.016Z,7.63
2019-04-25T11:15:00.584Z,8.03
2019-04-25T11:17:30.059Z,7.77
2019-04-25T11:19:59.814Z,8.03
2019-04-25T11:22:29.649Z,8.13
2019-04-25T11:25:01.511Z,7.30
2019-04-25T11:27:31.524Z,8.03
2019-04-25T11:30:09.225Z,8.43
2019-04-25T11:32:33.943Z,7.80
2019-04-25T11:35:05.093Z,7.83
2019-04-25T11:37:34.908Z,7.30
2019-04-25T11:40:26.833Z,8.03
2019-04-25T11:42:56.447Z,8.20
2019-04-25T11:45:26.440Z,7.17
2019-04-25T11:47:56.909Z,7.33
2019-04-25T11:50:26.760Z,7.37
2019-04-25T11:52:59.185Z,7.23
2019-04-25T11:55:29.755Z,7.13
2019-04-25T11:58:03.596Z,7.63
2019-04-25T12:00:35.730Z,7.30
2019-04-25T12:03:05.690Z,7.63
2019-04-25T12:05:35.581Z,7.70
2019-04-25T12:08:08.435Z,8.07
2019-04-25T12:10:39.053Z,7.43
2019-04-25T12:13:08.974Z,7.67
2019-04-25T12:15:39.347Z,7.27
2019-04-25T12:18:09.568Z,7.30
2019-04-25T12:20:39.189Z,8.27
2019-04-25T12:23:11.284Z,9.33
2019-04-25T12:25:40.871Z,8.17
2019-04-25T12:28:11.840Z,7.93
2019-04-25T12:30:41.412Z,8.23
2019-04-25T12:33:19.129Z,7.83
2019-04-25T12:35:43.698Z,7.47
2019-04-25T12:38:14.119Z,7.37
2019-04-25T12:40:43.972Z,8.50
2019-04-25T12:43:15.967Z,8.27
2019-04-25T12:45:57.051Z,8.37
2019-04-25T12:48:26.831Z,7.97
2019-04-25T12:50:56.760Z,7.70
2019-04-25T12:53:26.914Z,7.83
2019-04-25T12:55:56.927Z,8.20
2019-04-25T12:58:26.733Z,7.80
2019-04-25T13:00:59.697Z,8.43
2019-04-25T13:03:27.964Z,8.07
2019-04-25T13:06:00.694Z,22.23
2019-04-25T13:08:34.056Z,8.17
2019-04-25T13:11:09.863Z,8.60
2019-04-25T13:13:38.323Z,7.53
2019-04-25T13:16:07.927Z,8.03
2019-04-25T13:18:37.592Z,8.67
2019-04-25T13:21:10.025Z,8.60
2019-04-25T13:23:44.255Z,8.93
2019-04-25T13:26:18.287Z,8.50
2019-04-25T13:29:05.263Z,9.40
2019-04-25T13:32:15.560Z,9.33
2019-04-25T13:34:46.979Z,10.77
2019-04-25T13:37:18.415Z,11.00
2019-04-25T13:39:50.612Z,11.27
2019-04-25T13:42:23.272Z,12.13
2019-04-25T13:44:56.887Z,12.97
2019-04-25T13:47:29.257Z,13.90
2019-04-25T13:50:00.373Z,14.23
2019-04-25T13:52:33.318Z,14.90
2019-04-25T13:55:03.825Z,15.37
2019-04-25T13:57:37.652Z,15.60
2019-04-25T14:00:07.788Z,15.97
2019-04-25T14:02:37.701Z,16.27
2019-04-25T14:05:08.003Z,16.40
2019-04-25T14:07:37.939Z,15.90
2019-04-25T14:10:08.628Z,16.87
2019-04-25T14:12:38.355Z,16.17
2019-04-25T14:15:10.225Z,16.73
2019-04-25T14:18:01.849Z,16.27
2019-04-25T14:20:35.359Z,17.57
2019-04-25T14:23:06.797Z,16.77
2019-04-25T14:25:36.902Z,20.77
2019-04-25T14:28:07.572Z,17.20
2019-04-25T14:30:37.344Z,17.80
2019-04-25T14:33:07.407Z,17.40
2019-04-25T14:35:38.547Z,17.63
2019-04-25T14:38:09.192Z,18.43
2019-04-25T14:40:42.160Z,18.00
2019-04-25T14:43:11.070Z,17.63
2019-04-25T14:45:45.057Z,17.37
2019-04-25T14:48:14.842Z,16.93
2019-04-25T14:50:44.703Z,18.60
2019-04-25T14:53:14.814Z,18.30
2019-04-25T14:56:01.972Z,17.90
2019-04-25T14:58:33.866Z,18.37
2019-04-25T15:01:05.906Z,18.40
2019-04-25T15:03:36.090Z,18.60
2019-04-25T15:06:07.294Z,19.60
2019-04-25T15:08:37.523Z,20.67
2019-04-25T15:11:07.219Z,19.87
2019-04-25T15:13:36.998Z,20.63
2019-04-25T15:16:06.899Z,21.10
2019-04-25T15:18:46.384Z,20.67
2019-04-25T15:21:11.211Z,20.33
2019-04-25T15:23:41.191Z,23.23
2019-04-25T15:26:11.029Z,22.53
2019-04-25T15:28:40.968Z,23.67
2019-04-25T15:31:11.064Z,24.37
2019-04-25T15:33:42.874Z,24.00
2019-04-25T15:36:30.566Z,23.97
2019-04-25T15:39:17.656Z,24.90
2019-04-25T15:42:02.472Z,24.73
2019-04-25T15:45:00.910Z,27.20
2019-04-25T15:47:31.853Z,25.90
2019-04-25T15:50:01.720Z,26.13
2019-04-25T15:52:31.776Z,27.83
2019-04-25T15:55:07.537Z,27.97
2019-04-25T15:57:33.179Z,26.03
2019-04-25T16:00:06.404Z,27.10
2019-04-25T16:02:37.731Z,27.03
2019-04-25T16:05:09.243Z,27.27
2019-04-25T16:07:45.982Z,26.97
2019-04-25T16:10:18.637Z,27.00
2019-04-25T16:12:48.450Z,27.83
2019-04-25T16:15:18.369Z,28.27
2019-04-25T16:17:48.874Z,28.80
2019-04-25T16:20:18.553Z,28.40
2019-04-25T16:22:48.486Z,28.97
2019-04-25T16:25:18.176Z,29.37
2019-04-25T16:27:47.695Z,27.93
2019-04-25T16:30:19.192Z,27.87
2019-04-25T16:32:48.795Z,29.87
2019-04-25T16:35:18.696Z,28.20
2019-04-25T16:37:48.522Z,28.97
2019-04-25T16:40:18.721Z,29.27
2019-04-25T16:42:48.816Z,27.93
2019-04-25T16:45:20.451Z,28.60
2019-04-25T16:47:51.269Z,28.63
2019-04-25T16:50:23.027Z,28.37
2019-04-25T16:52:52.727Z,28.57
2019-04-25T16:55:23.018Z,29.07
2019-04-25T16:57:53.413Z,27.03
2019-04-25T17:00:49.516Z,27.47
2019-04-25T17:03:20.027Z,26.30
2019-04-25T17:05:51.055Z,26.30
2019-04-25T17:08:22.292Z,24.27
2019-04-25T17:10:52.304Z,22.87
2019-04-25T17:13:25.121Z,21.13
2019-04-25T17:16:06.806Z,20.33
2019-04-25T17:18:43.145Z,20.40
2019-04-25T17:21:13.338Z,18.80
2019-04-25T17:23:43.660Z,21.77
2019-04-25T17:26:13.530Z,20.87
2019-04-25T17:28:44.759Z,23.27
2019-04-25T17:31:40.396Z,20.60
2019-04-25T17:34:29.257Z,19.17
2019-04-25T17:37:31.024Z,19.57
2019-04-25T17:40:06.599Z,21.20
2019-04-25T17:42:36.782Z,19.60
2019-04-25T17:45:08.795Z,20.30
2019-04-25T17:47:39.036Z,21.20
2019-04-25T17:50:09.751Z,21.17
2019-04-25T17:52:39.406Z,23.60
2019-04-25T17:55:09.445Z,21.60
2019-04-25T17:57:40.024Z,22.07
2019-04-25T18:00:12.935Z,22.13
2019-04-25T18:02:44.071Z,21.63
2019-04-25T18:05:15.036Z,22.47
2019-04-25T18:07:50.036Z,21.50
2019-04-25T18:10:20.154Z,22.07
2019-04-25T18:12:58.026Z,21.93
2019-04-25T18:15:43.853Z,21.57
2019-04-25T18:18:23.274Z,23.13
2019-04-25T18:20:53.017Z,22.03
2019-04-25T18:23:40.591Z,22.40
2019-04-25T18:26:17.506Z,22.93
2019-04-25T18:28:53.170Z,23.37
2019-04-25T18:31:23.020Z,21.57
2019-04-25T18:33:56.775Z,21.43
2019-04-25T18:36:44.888Z,21.23
2019-04-25T18:39:26.910Z,20.80
2019-04-25T18:42:08.917Z,20.00
2019-04-25T18:44:40.070Z,20.40
2019-04-25T18:47:09.868Z,19.70
2019-04-25T18:49:42.527Z,18.23
2019-04-25T18:52:25.429Z,19.97
2019-04-25T18:55:06.429Z,19.00
2019-04-25T18:57:42.899Z,19.43
2019-04-25T19:00:40.314Z,17.73
2019-04-25T19:03:35.586Z,17.60
2019-04-25T19:06:08.143Z,17.40
2019-04-25T19:08:38.538Z,17.97
2019-04-25T19:11:09.776Z,17.40
2019-04-25T19:13:39.727Z,17.40
2019-04-25T19:16:09.494Z,16.17
2019-04-25T19:18:44.048Z,16.43
2019-04-25T19:21:12.725Z,16.10
2019-04-25T19:23:42.387Z,15.83
2019-04-25T19:26:12.205Z,16.37
2019-04-25T19:28:43.017Z,15.60
2019-04-25T19:31:14.164Z,15.17
2019-04-25T19:33:43.686Z,16.53
2019-04-25T19:36:13.336Z,16.73
2019-04-25T19:38:45.880Z,15.33
2019-04-25T19:41:24.138Z,15.63
2019-04-25T19:44:02.724Z,15.40
2019-04-25T19:46:47.772Z,15.00
2019-04-25T19:49:17.352Z,15.27
2019-04-25T19:51:47.311Z,15.17
2019-04-25T19:54:18.541Z,14.43
2019-04-25T19:56:48.213Z,15.40
2019-04-25T19:59:18.036Z,16.40
2019-04-25T20:01:48.294Z,15.60
2019-04-25T20:04:35.693Z,16.77
2019-04-25T20:07:33.883Z,16.03
2019-04-25T20:10:24.867Z,16.60
2019-04-25T20:13:00.441Z,15.23
2019-04-25T20:15:33.962Z,16.40
2019-04-25T20:18:03.918Z,15.33
2019-04-25T20:20:36.843Z,15.70
2019-04-25T20:23:06.824Z,17.27
2019-04-25T20:25:39.231Z,15.80
2019-04-25T20:28:11.462Z,15.60
2019-04-25T20:30:41.582Z,15.17
2019-04-25T20:33:11.201Z,15.73
2019-04-25T20:35:44.894Z,16.13
2019-04-25T20:41:18.721Z,15.40
2019-04-25T20:43:50.730Z,16.03
2019-04-25T20:46:20.620Z,15.83
2019-04-25T20:48:52.430Z,15.97
2019-04-25T20:51:22.493Z,16.17
2019-04-25T20:53:52.804Z,15.17
2019-04-25T20:56:23.241Z,16.20
2019-04-25T20:58:53.512Z,15.47
2019-04-25T21:01:23.399Z,15.60
2019-04-25T21:03:53.912Z,16.73
2019-04-25T21:06:31.380Z,15.43
2019-04-25T21:09:02.325Z,14.93
2019-04-25T21:11:32.416Z,16.63
2019-04-25T21:14:19.349Z,15.43
2019-04-25T21:17:05.494Z,17.07
2019-04-25T21:19:39.260Z,15.13
2019-04-25T21:22:08.802Z,15.53
2019-04-25T21:24:41.288Z,16.07
2019-04-25T21:27:11.936Z,15.53
2019-04-25T21:29:41.694Z,15.93
2019-04-25T21:32:12.030Z,16.00
2019-04-25T21:34:41.533Z,16.60
2019-04-25T21:37:11.935Z,16.63
2019-04-25T21:39:59.732Z,15.40
2019-04-25T21:42:34.947Z,15.30
2019-04-25T21:45:05.129Z,16.27
2019-04-25T21:47:34.871Z,15.20
2019-04-25T21:50:05.633Z,15.73
2019-04-25T21:52:35.522Z,15.27
2019-04-25T21:55:05.496Z,14.97
2019-04-25T21:57:35.494Z,14.77
2019-04-25T22:00:09.312Z,15.27
2019-04-25T22:02:39.363Z,15.10
2019-04-25T22:05:09.809Z,15.97
2019-04-25T22:07:39.866Z,15.90
2019-04-25T22:10:10.479Z,16.73
2019-04-25T22:12:40.168Z,16.87
2019-04-25T22:15:12.773Z,17.87
2019-04-25T22:17:43.763Z,18.10
2019-04-25T22:20:13.533Z,17.43
2019-04-25T22:22:45.513Z,17.50
2019-04-25T22:25:15.565Z,18.07
2019-04-25T22:27:50.939Z,18.27
2019-04-25T22:30:20.769Z,17.77
2019-04-25T22:33:09.565Z,18.40
2019-04-25T22:35:53.002Z,19.27
2019-04-25T22:38:22.992Z,19.17
2019-04-25T22:40:52.562Z,19.70
2019-04-25T22:43:22.852Z,19.37
2019-04-25T22:45:53.803Z,18.67
2019-04-25T22:48:26.935Z,19.67
2019-04-25T22:50:57.089Z,20.23
2019-04-25T22:53:26.758Z,20.77
2019-04-25T22:55:56.892Z,20.40
2019-04-25T22:58:27.572Z,20.00
2019-04-25T23:00:57.838Z,20.50
2019-04-25T23:03:36.576Z,20.00
2019-04-25T23:06:07.638Z,18.60
2019-04-25T23:08:38.946Z,19.20
2019-04-25T23:11:10.541Z,19.20
2019-04-25T23:13:40.929Z,19.30
2019-04-25T23:16:11.216Z,19.17
2019-04-25T23:18:41.421Z,19.60
2019-04-25T23:21:12.301Z,18.63
2019-04-25T23:23:43.650Z,20.03
2019-04-25T23:26:32.804Z,20.77
2019-04-25T23:29:04.696Z,21.13
2019-04-25T23:31:36.524Z,21.00
2019-04-25T23:34:07.031Z,22.37
2019-04-25T23:36:37.038Z,22.63
2019-04-25T23:39:09.408Z,21.50
2019-04-25T23:41:39.782Z,21.70
2019-04-25T23:44:10.339Z,21.47
2019-04-25T23:46:41.547Z,22.60
2019-04-25T23:49:11.392Z,23.43
2019-04-25T23:51:41.013Z,24.17
2019-04-25T23:54:15.419Z,26.07
2019-04-25T23:56:45.072Z,22.10
2019-04-25T23:59:15.765Z,22.17
